sensor_id;sensor_type;location;lat;lon;timestamp;P1;durP1;ratioP1;P2;durP2;ratioP2
70132;SDS011;57495;49.922;7.966;2022-10-16T00:00:40;3.63;;;0.70;;
70132;SDS011;57495;49.922;7.966;2022-10-16T00:02:44;2.97;;;1.00;;
70132;SDS011;57495;49.922;7.966;2022-10-16T00:04:45;4.38;;;1.08;;
70132;SDS011;57495;49.922;7.966;2022-10-16T00:06:46;4.03;;;0.80;;
70132;SDS011;57495;49.922;7.966;2022-10-16T00:08:48;2.80;;;0.70;;
70132;SDS011;57495;49.922;7.966;2022-10-16T00:10:50;3.00;;;0.90;;
70132;SDS011;57495;49.922;7.966;2022-10-16T00:12:52;5.05;;;1.00;;
70132;SDS011;57495;49.922;7.966;2022-10-16T00:14:53;2.85;;;0.82;;
70132;SDS011;57495;49.922;7.966;2022-10-16T00:16:55;3.40;;;1.10;;
70132;SDS011;57495;49.922;7.966;2022-10-16T00:18:58;3.80;;;0.88;;
70132;SDS011;57495;49.922;7.966;2022-10-16T00:21:01;4.05;;;1.27;;
70132;SDS011;57495;49.922;7.966;2022-10-16T00:23:04;6.07;;;1.00;;
70132;SDS011;57495;49.922;7.966;2022-10-16T00:25:06;2.47;;;0.80;;
70132;SDS011;57495;49.922;7.966;2022-10-16T00:27:08;2.73;;;0.80;;
70132;SDS011;57495;49.922;7.966;2022-10-16T00:29:10;3.20;;;0.90;;
70132;SDS011;57495;49.922;7.966;2022-10-16T00:31:11;3.00;;;1.00;;
70132;SDS011;57495;49.922;7.966;2022-10-16T00:33:13;3.13;;;0.80;;
70132;SDS011;57495;49.922;7.966;2022-10-16T00:35:16;5.03;;;1.00;;
70132;SDS011;57495;49.922;7.966;2022-10-16T00:37:17;5.27;;;1.03;;
70132;SDS011;57495;49.922;7.966;2022-10-16T00:39:18;3.42;;;0.90;;
70132;SDS011;57495;49.922;7.966;2022-10-16T00:41:20;3.05;;;1.02;;
70132;SDS011;57495;49.922;7.966;2022-10-16T00:43:34;3.17;;;1.17;;
70132;SDS011;57495;49.922;7.966;2022-10-16T00:45:38;5.57;;;1.08;;
70132;SDS011;57495;49.922;7.966;2022-10-16T00:47:40;9.37;;;1.67;;
70132;SDS011;57495;49.922;7.966;2022-10-16T00:49:46;5.28;;;1.30;;
70132;SDS011;57495;49.922;7.966;2022-10-16T00:51:51;3.90;;;1.15;;
70132;SDS011;57495;49.922;7.966;2022-10-16T00:53:54;3.47;;;1.45;;
70132;SDS011;57495;49.922;7.966;2022-10-16T00:55:56;4.13;;;1.80;;
70132;SDS011;57495;49.922;7.966;2022-10-16T00:57:58;3.73;;;0.97;;
70132;SDS011;57495;49.922;7.966;2022-10-16T00:59:59;3.10;;;0.88;;
70132;SDS011;57495;49.922;7.966;2022-10-16T01:02:01;3.90;;;1.10;;
70132;SDS011;57495;49.922;7.966;2022-10-16T01:04:03;2.47;;;0.80;;
70132;SDS011;57495;49.922;7.966;2022-10-16T01:06:07;3.85;;;0.85;;
70132;SDS011;57495;49.922;7.966;2022-10-16T01:08:21;2.60;;;0.80;;
70132;SDS011;57495;49.922;7.966;2022-10-16T01:10:32;2.92;;;0.90;;
70132;SDS011;57495;49.922;7.966;2022-10-16T01:12:40;2.63;;;0.63;;
70132;SDS011;57495;49.922;7.966;2022-10-16T01:14:45;4.45;;;1.25;;
70132;SDS011;57495;49.922;7.966;2022-10-16T01:16:52;5.97;;;1.00;;
70132;SDS011;57495;49.922;7.966;2022-10-16T01:19:01;6.13;;;0.87;;
70132;SDS011;57495;49.922;7.966;2022-10-16T01:21:10;4.15;;;1.10;;
70132;SDS011;57495;49.922;7.966;2022-10-16T01:23:21;2.88;;;1.00;;
70132;SDS011;57495;49.922;7.966;2022-10-16T01:25:31;3.38;;;1.40;;
70132;SDS011;57495;49.922;7.966;2022-10-16T01:27:42;5.20;;;1.08;;
70132;SDS011;57495;49.922;7.966;2022-10-16T01:29:49;4.87;;;0.93;;
70132;SDS011;57495;49.922;7.966;2022-10-16T01:31:55;5.43;;;1.20;;
70132;SDS011;57495;49.922;7.966;2022-10-16T01:34:00;3.25;;;1.30;;
70132;SDS011;57495;49.922;7.966;2022-10-16T01:36:06;3.00;;;1.00;;
70132;SDS011;57495;49.922;7.966;2022-10-16T01:38:14;4.03;;;1.17;;
70132;SDS011;57495;49.922;7.966;2022-10-16T01:40:20;5.07;;;1.70;;
70132;SDS011;57495;49.922;7.966;2022-10-16T01:42:27;4.45;;;1.60;;
70132;SDS011;57495;49.922;7.966;2022-10-16T01:44:36;3.58;;;1.65;;
70132;SDS011;57495;49.922;7.966;2022-10-16T01:46:41;4.97;;;1.65;;
70132;SDS011;57495;49.922;7.966;2022-10-16T01:48:44;4.60;;;1.40;;
70132;SDS011;57495;49.922;7.966;2022-10-16T01:50:49;4.77;;;1.67;;
70132;SDS011;57495;49.922;7.966;2022-10-16T01:52:55;4.38;;;1.75;;
70132;SDS011;57495;49.922;7.966;2022-10-16T01:54:59;4.07;;;1.60;;
70132;SDS011;57495;49.922;7.966;2022-10-16T01:57:03;3.40;;;1.60;;
70132;SDS011;57495;49.922;7.966;2022-10-16T01:59:09;5.18;;;1.80;;
70132;SDS011;57495;49.922;7.966;2022-10-16T02:01:16;5.07;;;1.60;;
70132;SDS011;57495;49.922;7.966;2022-10-16T02:03:22;5.53;;;1.75;;
70132;SDS011;57495;49.922;7.966;2022-10-16T02:05:25;5.55;;;2.08;;
70132;SDS011;57495;49.922;7.966;2022-10-16T02:07:30;4.40;;;1.92;;
70132;SDS011;57495;49.922;7.966;2022-10-16T02:09:32;5.15;;;1.90;;
70132;SDS011;57495;49.922;7.966;2022-10-16T02:11:35;6.47;;;1.67;;
70132;SDS011;57495;49.922;7.966;2022-10-16T02:13:37;4.82;;;2.10;;
70132;SDS011;57495;49.922;7.966;2022-10-16T02:15:42;4.75;;;2.15;;
70132;SDS011;57495;49.922;7.966;2022-10-16T02:17:45;5.22;;;2.42;;
70132;SDS011;57495;49.922;7.966;2022-10-16T02:19:47;6.30;;;2.13;;
70132;SDS011;57495;49.922;7.966;2022-10-16T02:21:51;4.57;;;1.87;;
70132;SDS011;57495;49.922;7.966;2022-10-16T02:23:57;4.30;;;2.10;;
70132;SDS011;57495;49.922;7.966;2022-10-16T02:26:08;4.85;;;2.30;;
70132;SDS011;57495;49.922;7.966;2022-10-16T02:28:14;5.88;;;2.28;;
70132;SDS011;57495;49.922;7.966;2022-10-16T02:30:19;5.32;;;2.20;;
70132;SDS011;57495;49.922;7.966;2022-10-16T02:32:27;6.80;;;2.17;;
70132;SDS011;57495;49.922;7.966;2022-10-16T02:34:32;4.95;;;2.10;;
70132;SDS011;57495;49.922;7.966;2022-10-16T02:36:35;4.80;;;1.90;;
70132;SDS011;57495;49.922;7.966;2022-10-16T02:38:37;5.35;;;2.10;;
70132;SDS011;57495;49.922;7.966;2022-10-16T02:40:40;5.88;;;1.90;;
70132;SDS011;57495;49.922;7.966;2022-10-16T02:42:42;5.17;;;1.63;;
70132;SDS011;57495;49.922;7.966;2022-10-16T02:44:44;5.78;;;1.65;;
70132;SDS011;57495;49.922;7.966;2022-10-16T02:46:45;5.15;;;1.67;;
70132;SDS011;57495;49.922;7.966;2022-10-16T02:48:47;4.10;;;1.70;;
70132;SDS011;57495;49.922;7.966;2022-10-16T02:50:50;3.75;;;1.70;;
70132;SDS011;57495;49.922;7.966;2022-10-16T02:52:52;3.53;;;1.30;;
70132;SDS011;57495;49.922;7.966;2022-10-16T02:54:53;4.85;;;1.70;;
70132;SDS011;57495;49.922;7.966;2022-10-16T02:56:55;4.25;;;1.52;;
70132;SDS011;57495;49.922;7.966;2022-10-16T02:58:56;4.28;;;1.40;;
70132;SDS011;57495;49.922;7.966;2022-10-16T03:00:58;3.75;;;1.38;;
70132;SDS011;57495;49.922;7.966;2022-10-16T03:02:59;4.33;;;1.40;;
70132;SDS011;57495;49.922;7.966;2022-10-16T03:05:01;4.90;;;1.33;;
70132;SDS011;57495;49.922;7.966;2022-10-16T03:07:04;3.47;;;1.10;;
70132;SDS011;57495;49.922;7.966;2022-10-16T03:09:05;4.07;;;1.70;;
70132;SDS011;57495;49.922;7.966;2022-10-16T03:11:08;4.32;;;1.30;;
70132;SDS011;57495;49.922;7.966;2022-10-16T03:13:09;5.00;;;1.27;;
70132;SDS011;57495;49.922;7.966;2022-10-16T03:15:11;3.85;;;1.40;;
70132;SDS011;57495;49.922;7.966;2022-10-16T03:17:12;4.32;;;1.40;;
70132;SDS011;57495;49.922;7.966;2022-10-16T03:19:16;3.67;;;1.38;;
70132;SDS011;57495;49.922;7.966;2022-10-16T03:21:18;5.75;;;1.33;;
70132;SDS011;57495;49.922;7.966;2022-10-16T03:23:21;3.30;;;1.37;;
70132;SDS011;57495;49.922;7.966;2022-10-16T03:25:22;3.10;;;1.30;;
70132;SDS011;57495;49.922;7.966;2022-10-16T03:27:24;4.68;;;1.70;;
70132;SDS011;57495;49.922;7.966;2022-10-16T03:29:25;4.07;;;1.50;;
70132;SDS011;57495;49.922;7.966;2022-10-16T03:31:29;4.22;;;1.20;;
70132;SDS011;57495;49.922;7.966;2022-10-16T03:33:31;7.10;;;2.10;;
70132;SDS011;57495;49.922;7.966;2022-10-16T03:35:32;3.22;;;1.15;;
70132;SDS011;57495;49.922;7.966;2022-10-16T03:37:34;4.47;;;1.20;;
70132;SDS011;57495;49.922;7.966;2022-10-16T03:39:36;3.70;;;1.40;;
70132;SDS011;57495;49.922;7.966;2022-10-16T03:41:38;4.88;;;1.80;;
70132;SDS011;57495;49.922;7.966;2022-10-16T03:43:39;3.80;;;1.27;;
70132;SDS011;57495;49.922;7.966;2022-10-16T03:45:40;5.97;;;1.38;;
70132;SDS011;57495;49.922;7.966;2022-10-16T03:47:42;5.65;;;1.30;;
70132;SDS011;57495;49.922;7.966;2022-10-16T03:49:43;3.83;;;1.10;;
70132;SDS011;57495;49.922;7.966;2022-10-16T03:51:45;5.13;;;1.25;;
70132;SDS011;57495;49.922;7.966;2022-10-16T03:53:46;2.93;;;1.00;;
70132;SDS011;57495;49.922;7.966;2022-10-16T03:55:49;3.60;;;1.10;;
70132;SDS011;57495;49.922;7.966;2022-10-16T03:57:50;3.60;;;1.70;;
70132;SDS011;57495;49.922;7.966;2022-10-16T03:59:52;5.40;;;1.20;;
70132;SDS011;57495;49.922;7.966;2022-10-16T04:01:53;3.25;;;1.20;;
70132;SDS011;57495;49.922;7.966;2022-10-16T04:03:55;7.67;;;1.20;;
70132;SDS011;57495;49.922;7.966;2022-10-16T04:05:56;7.25;;;1.23;;
70132;SDS011;57495;49.922;7.966;2022-10-16T04:07:57;3.83;;;1.05;;
70132;SDS011;57495;49.922;7.966;2022-10-16T04:09:59;3.38;;;1.25;;
70132;SDS011;57495;49.922;7.966;2022-10-16T04:12:01;9.93;;;1.95;;
70132;SDS011;57495;49.922;7.966;2022-10-16T04:14:03;3.50;;;0.90;;
70132;SDS011;57495;49.922;7.966;2022-10-16T04:16:05;3.97;;;0.93;;
70132;SDS011;57495;49.922;7.966;2022-10-16T04:18:06;3.35;;;0.60;;
70132;SDS011;57495;49.922;7.966;2022-10-16T04:20:08;3.42;;;0.98;;
70132;SDS011;57495;49.922;7.966;2022-10-16T04:22:09;3.40;;;0.73;;
70132;SDS011;57495;49.922;7.966;2022-10-16T04:24:11;3.13;;;0.83;;
70132;SDS011;57495;49.922;7.966;2022-10-16T04:26:12;2.60;;;0.60;;
70132;SDS011;57495;49.922;7.966;2022-10-16T04:28:15;3.25;;;0.50;;
70132;SDS011;57495;49.922;7.966;2022-10-16T04:30:16;2.95;;;0.80;;
70132;SDS011;57495;49.922;7.966;2022-10-16T04:32:18;2.30;;;0.70;;
70132;SDS011;57495;49.922;7.966;2022-10-16T04:34:19;2.33;;;0.53;;
70132;SDS011;57495;49.922;7.966;2022-10-16T04:36:20;3.70;;;0.80;;
70132;SDS011;57495;49.922;7.966;2022-10-16T04:38:22;2.35;;;0.73;;
70132;SDS011;57495;49.922;7.966;2022-10-16T04:40:23;3.72;;;0.68;;
70132;SDS011;57495;49.922;7.966;2022-10-16T04:42:25;3.20;;;0.80;;
70132;SDS011;57495;49.922;7.966;2022-10-16T04:44:28;3.30;;;0.80;;
70132;SDS011;57495;49.922;7.966;2022-10-16T04:46:29;3.03;;;0.70;;
70132;SDS011;57495;49.922;7.966;2022-10-16T04:48:30;4.65;;;1.00;;
70132;SDS011;57495;49.922;7.966;2022-10-16T04:50:32;3.83;;;1.10;;
70132;SDS011;57495;49.922;7.966;2022-10-16T04:52:33;4.40;;;0.80;;
70132;SDS011;57495;49.922;7.966;2022-10-16T04:54:35;8.33;;;0.90;;
70132;SDS011;57495;49.922;7.966;2022-10-16T04:56:36;3.13;;;0.70;;
70132;SDS011;57495;49.922;7.966;2022-10-16T04:58:43;2.97;;;0.88;;
70132;SDS011;57495;49.922;7.966;2022-10-16T05:00:45;2.70;;;0.50;;
70132;SDS011;57495;49.922;7.966;2022-10-16T05:02:47;2.78;;;0.80;;
70132;SDS011;57495;49.922;7.966;2022-10-16T05:04:50;5.30;;;0.83;;
70132;SDS011;57495;49.922;7.966;2022-10-16T05:06:52;5.22;;;0.75;;
70132;SDS011;57495;49.922;7.966;2022-10-16T05:08:54;2.20;;;0.70;;
70132;SDS011;57495;49.922;7.966;2022-10-16T05:10:55;2.50;;;0.80;;
70132;SDS011;57495;49.922;7.966;2022-10-16T05:12:56;5.82;;;0.70;;
70132;SDS011;57495;49.922;7.966;2022-10-16T05:14:58;5.57;;;1.10;;
70132;SDS011;57495;49.922;7.966;2022-10-16T05:17:01;4.55;;;0.77;;
70132;SDS011;57495;49.922;7.966;2022-10-16T05:19:03;3.13;;;0.90;;
70132;SDS011;57495;49.922;7.966;2022-10-16T05:21:05;2.28;;;0.63;;
70132;SDS011;57495;49.922;7.966;2022-10-16T05:23:06;3.90;;;0.80;;
70132;SDS011;57495;49.922;7.966;2022-10-16T05:25:10;2.63;;;0.70;;
70132;SDS011;57495;49.922;7.966;2022-10-16T05:27:11;2.40;;;0.73;;
70132;SDS011;57495;49.922;7.966;2022-10-16T05:29:18;3.15;;;0.70;;
70132;SDS011;57495;49.922;7.966;2022-10-16T05:31:20;2.78;;;0.98;;
70132;SDS011;57495;49.922;7.966;2022-10-16T05:33:24;2.75;;;0.90;;
70132;SDS011;57495;49.922;7.966;2022-10-16T05:35:26;2.57;;;0.80;;
70132;SDS011;57495;49.922;7.966;2022-10-16T05:37:28;4.22;;;1.00;;
70132;SDS011;57495;49.922;7.966;2022-10-16T05:39:29;4.90;;;1.13;;
70132;SDS011;57495;49.922;7.966;2022-10-16T05:41:30;6.65;;;1.00;;
70132;SDS011;57495;49.922;7.966;2022-10-16T05:43:32;2.58;;;1.00;;
70132;SDS011;57495;49.922;7.966;2022-10-16T05:45:33;4.53;;;1.30;;
70132;SDS011;57495;49.922;7.966;2022-10-16T05:47:35;3.97;;;1.13;;
70132;SDS011;57495;49.922;7.966;2022-10-16T05:49:38;4.55;;;1.50;;
70132;SDS011;57495;49.922;7.966;2022-10-16T05:51:39;4.13;;;1.30;;
70132;SDS011;57495;49.922;7.966;2022-10-16T05:53:41;3.70;;;1.20;;
70132;SDS011;57495;49.922;7.966;2022-10-16T05:55:43;3.60;;;1.20;;
70132;SDS011;57495;49.922;7.966;2022-10-16T05:57:53;6.30;;;1.40;;
70132;SDS011;57495;49.922;7.966;2022-10-16T05:59:55;4.18;;;1.35;;
70132;SDS011;57495;49.922;7.966;2022-10-16T06:01:57;3.10;;;1.10;;
70132;SDS011;57495;49.922;7.966;2022-10-16T06:03:58;6.28;;;1.20;;
70132;SDS011;57495;49.922;7.966;2022-10-16T06:06:06;2.80;;;0.93;;
70132;SDS011;57495;49.922;7.966;2022-10-16T06:08:08;3.75;;;1.00;;
70132;SDS011;57495;49.922;7.966;2022-10-16T06:10:10;2.80;;;0.77;;
70132;SDS011;57495;49.922;7.966;2022-10-16T06:12:11;5.45;;;0.82;;
70132;SDS011;57495;49.922;7.966;2022-10-16T06:14:12;3.92;;;1.10;;
70132;SDS011;57495;49.922;7.966;2022-10-16T06:16:14;3.13;;;0.90;;
70132;SDS011;57495;49.922;7.966;2022-10-16T06:18:15;3.30;;;1.15;;
70132;SDS011;57495;49.922;7.966;2022-10-16T06:20:17;3.63;;;0.85;;
70132;SDS011;57495;49.922;7.966;2022-10-16T06:22:19;5.53;;;1.00;;
70132;SDS011;57495;49.922;7.966;2022-10-16T06:24:21;3.53;;;1.13;;
70132;SDS011;57495;49.922;7.966;2022-10-16T06:26:23;11.63;;;5.37;;
70132;SDS011;57495;49.922;7.966;2022-10-16T06:28:25;13.55;;;7.43;;
70132;SDS011;57495;49.922;7.966;2022-10-16T06:30:27;8.27;;;4.65;;
70132;SDS011;57495;49.922;7.966;2022-10-16T06:32:28;7.32;;;3.33;;
70132;SDS011;57495;49.922;7.966;2022-10-16T06:34:30;11.55;;;5.38;;
70132;SDS011;57495;49.922;7.966;2022-10-16T06:36:31;10.87;;;6.20;;
70132;SDS011;57495;49.922;7.966;2022-10-16T06:38:34;8.55;;;4.70;;
70132;SDS011;57495;49.922;7.966;2022-10-16T06:40:36;8.50;;;4.57;;
70132;SDS011;57495;49.922;7.966;2022-10-16T06:42:37;8.80;;;4.53;;
70132;SDS011;57495;49.922;7.966;2022-10-16T06:44:38;8.32;;;4.28;;
70132;SDS011;57495;49.922;7.966;2022-10-16T06:46:40;7.50;;;3.63;;
70132;SDS011;57495;49.922;7.966;2022-10-16T06:48:41;6.88;;;3.70;;
70132;SDS011;57495;49.922;7.966;2022-10-16T06:50:43;6.72;;;3.60;;
70132;SDS011;57495;49.922;7.966;2022-10-16T06:52:44;5.72;;;2.55;;
70132;SDS011;57495;49.922;7.966;2022-10-16T06:54:47;4.47;;;2.15;;
70132;SDS011;57495;49.922;7.966;2022-10-16T06:56:48;4.67;;;2.10;;
70132;SDS011;57495;49.922;7.966;2022-10-16T06:58:54;4.97;;;2.00;;
70132;SDS011;57495;49.922;7.966;2022-10-16T07:00:55;5.80;;;1.60;;
70132;SDS011;57495;49.922;7.966;2022-10-16T07:02:57;5.32;;;1.42;;
70132;SDS011;57495;49.922;7.966;2022-10-16T07:04:59;3.25;;;1.08;;
70132;SDS011;57495;49.922;7.966;2022-10-16T07:07:00;4.90;;;1.30;;
70132;SDS011;57495;49.922;7.966;2022-10-16T07:09:03;4.68;;;1.40;;
70132;SDS011;57495;49.922;7.966;2022-10-16T07:11:08;3.33;;;1.27;;
70132;SDS011;57495;49.922;7.966;2022-10-16T07:13:12;5.25;;;1.20;;
70132;SDS011;57495;49.922;7.966;2022-10-16T07:15:14;4.35;;;1.52;;
70132;SDS011;57495;49.922;7.966;2022-10-16T07:17:15;7.23;;;2.33;;
70132;SDS011;57495;49.922;7.966;2022-10-16T07:19:17;4.05;;;2.05;;
70132;SDS011;57495;49.922;7.966;2022-10-16T07:21:19;5.80;;;2.30;;
70132;SDS011;57495;49.922;7.966;2022-10-16T07:23:21;6.18;;;3.10;;
70132;SDS011;57495;49.922;7.966;2022-10-16T07:25:22;6.97;;;3.90;;
70132;SDS011;57495;49.922;7.966;2022-10-16T07:27:25;6.60;;;3.80;;
70132;SDS011;57495;49.922;7.966;2022-10-16T07:29:26;7.57;;;3.83;;
70132;SDS011;57495;49.922;7.966;2022-10-16T07:31:28;5.72;;;3.70;;
70132;SDS011;57495;49.922;7.966;2022-10-16T07:33:30;5.70;;;3.47;;
70132;SDS011;57495;49.922;7.966;2022-10-16T07:35:31;6.70;;;3.00;;
70132;SDS011;57495;49.922;7.966;2022-10-16T07:37:33;5.90;;;4.03;;
70132;SDS011;57495;49.922;7.966;2022-10-16T07:39:34;7.65;;;5.00;;
70132;SDS011;57495;49.922;7.966;2022-10-16T07:41:36;8.32;;;4.38;;
70132;SDS011;57495;49.922;7.966;2022-10-16T07:43:38;8.32;;;4.30;;
70132;SDS011;57495;49.922;7.966;2022-10-16T07:45:46;6.63;;;3.92;;
70132;SDS011;57495;49.922;7.966;2022-10-16T07:47:48;6.40;;;3.70;;
70132;SDS011;57495;49.922;7.966;2022-10-16T07:49:50;8.27;;;4.45;;
70132;SDS011;57495;49.922;7.966;2022-10-16T07:51:51;6.53;;;4.13;;
70132;SDS011;57495;49.922;7.966;2022-10-16T07:53:52;6.95;;;3.80;;
70132;SDS011;57495;49.922;7.966;2022-10-16T07:55:56;8.35;;;3.30;;
70132;SDS011;57495;49.922;7.966;2022-10-16T07:57:59;6.83;;;3.07;;
70132;SDS011;57495;49.922;7.966;2022-10-16T08:00:02;7.07;;;3.35;;
70132;SDS011;57495;49.922;7.966;2022-10-16T08:02:03;7.68;;;4.07;;
70132;SDS011;57495;49.922;7.966;2022-10-16T08:04:05;6.60;;;4.05;;
70132;SDS011;57495;49.922;7.966;2022-10-16T08:06:07;7.65;;;5.47;;
70132;SDS011;57495;49.922;7.966;2022-10-16T08:08:11;8.57;;;5.23;;
70132;SDS011;57495;49.922;7.966;2022-10-16T08:10:14;7.07;;;2.75;;
70132;SDS011;57495;49.922;7.966;2022-10-16T08:12:17;4.90;;;2.00;;
70132;SDS011;57495;49.922;7.966;2022-10-16T08:14:19;5.50;;;2.65;;
70132;SDS011;57495;49.922;7.966;2022-10-16T08:16:21;9.02;;;2.53;;
70132;SDS011;57495;49.922;7.966;2022-10-16T08:18:23;5.33;;;2.33;;
70132;SDS011;57495;49.922;7.966;2022-10-16T08:20:25;5.15;;;2.60;;
70132;SDS011;57495;49.922;7.966;2022-10-16T08:22:27;5.32;;;2.28;;
70132;SDS011;57495;49.922;7.966;2022-10-16T08:24:28;4.40;;;2.20;;
70132;SDS011;57495;49.922;7.966;2022-10-16T08:26:31;4.97;;;2.90;;
70132;SDS011;57495;49.922;7.966;2022-10-16T08:28:32;4.60;;;2.70;;
70132;SDS011;57495;49.922;7.966;2022-10-16T08:30:34;5.13;;;3.15;;
70132;SDS011;57495;49.922;7.966;2022-10-16T08:32:37;10.68;;;5.20;;
70132;SDS011;57495;49.922;7.966;2022-10-16T08:34:39;10.23;;;6.43;;
70132;SDS011;57495;49.922;7.966;2022-10-16T08:36:40;7.43;;;5.93;;
70132;SDS011;57495;49.922;7.966;2022-10-16T08:38:41;7.23;;;4.27;;
70132;SDS011;57495;49.922;7.966;2022-10-16T08:40:43;8.32;;;3.83;;
70132;SDS011;57495;49.922;7.966;2022-10-16T08:42:52;5.30;;;3.00;;
70132;SDS011;57495;49.922;7.966;2022-10-16T08:45:14;3.30;;;1.52;;
70132;SDS011;57495;49.922;7.966;2022-10-16T08:47:33;6.90;;;1.67;;
70132;SDS011;57495;49.922;7.966;2022-10-16T08:49:50;4.70;;;2.00;;
70132;SDS011;57495;49.922;7.966;2022-10-16T08:51:57;4.25;;;1.80;;
70132;SDS011;57495;49.922;7.966;2022-10-16T08:54:01;7.10;;;1.60;;
70132;SDS011;57495;49.922;7.966;2022-10-16T08:56:05;4.32;;;1.50;;
70132;SDS011;57495;49.922;7.966;2022-10-16T08:58:10;4.22;;;1.83;;
70132;SDS011;57495;49.922;7.966;2022-10-16T09:00:13;5.27;;;2.07;;
70132;SDS011;57495;49.922;7.966;2022-10-16T09:02:24;6.00;;;2.10;;
70132;SDS011;57495;49.922;7.966;2022-10-16T09:04:44;5.97;;;1.50;;
70132;SDS011;57495;49.922;7.966;2022-10-16T09:07:00;3.50;;;1.42;;
70132;SDS011;57495;49.922;7.966;2022-10-16T09:09:09;4.70;;;1.70;;
70132;SDS011;57495;49.922;7.966;2022-10-16T09:11:40;4.03;;;1.67;;
70132;SDS011;57495;49.922;7.966;2022-10-16T09:13:50;3.70;;;1.02;;
70132;SDS011;57495;49.922;7.966;2022-10-16T09:16:01;2.97;;;1.13;;
70132;SDS011;57495;49.922;7.966;2022-10-16T09:18:15;3.70;;;1.08;;
70132;SDS011;57495;49.922;7.966;2022-10-16T09:20:26;3.53;;;1.30;;
70132;SDS011;57495;49.922;7.966;2022-10-16T09:22:32;3.23;;;1.30;;
70132;SDS011;57495;49.922;7.966;2022-10-16T09:24:33;3.00;;;0.90;;
70132;SDS011;57495;49.922;7.966;2022-10-16T09:26:35;3.10;;;1.10;;
70132;SDS011;57495;49.922;7.966;2022-10-16T09:28:36;3.60;;;1.20;;
70132;SDS011;57495;49.922;7.966;2022-10-16T09:30:38;3.08;;;1.20;;
70132;SDS011;57495;49.922;7.966;2022-10-16T09:32:40;5.57;;;1.40;;
70132;SDS011;57495;49.922;7.966;2022-10-16T09:34:43;3.10;;;0.95;;
70132;SDS011;57495;49.922;7.966;2022-10-16T09:36:49;2.80;;;0.80;;
70132;SDS011;57495;49.922;7.966;2022-10-16T09:39:01;4.35;;;0.93;;
70132;SDS011;57495;49.922;7.966;2022-10-16T09:41:11;3.72;;;1.70;;
70132;SDS011;57495;49.922;7.966;2022-10-16T09:43:19;5.00;;;1.73;;
70132;SDS011;57495;49.922;7.966;2022-10-16T09:45:24;5.05;;;2.03;;
70132;SDS011;57495;49.922;7.966;2022-10-16T09:47:26;5.82;;;2.50;;
70132;SDS011;57495;49.922;7.966;2022-10-16T09:49:29;4.95;;;2.42;;
70132;SDS011;57495;49.922;7.966;2022-10-16T09:51:31;6.28;;;3.30;;
70132;SDS011;57495;49.922;7.966;2022-10-16T09:53:38;6.73;;;2.50;;
70132;SDS011;57495;49.922;7.966;2022-10-16T09:55:48;5.30;;;1.63;;
70132;SDS011;57495;49.922;7.966;2022-10-16T09:57:51;4.40;;;1.80;;
70132;SDS011;57495;49.922;7.966;2022-10-16T09:59:53;4.03;;;1.60;;
70132;SDS011;57495;49.922;7.966;2022-10-16T10:01:55;4.03;;;1.60;;
70132;SDS011;57495;49.922;7.966;2022-10-16T10:03:58;3.93;;;1.10;;
70132;SDS011;57495;49.922;7.966;2022-10-16T10:06:05;3.13;;;1.00;;
70132;SDS011;57495;49.922;7.966;2022-10-16T10:08:17;4.35;;;1.10;;
70132;SDS011;57495;49.922;7.966;2022-10-16T10:10:21;4.70;;;1.13;;
70132;SDS011;57495;49.922;7.966;2022-10-16T10:12:25;2.90;;;1.20;;
70132;SDS011;57495;49.922;7.966;2022-10-16T10:14:30;3.37;;;1.00;;
70132;SDS011;57495;49.922;7.966;2022-10-16T10:16:36;3.50;;;1.20;;
70132;SDS011;57495;49.922;7.966;2022-10-16T10:18:37;3.20;;;1.17;;
70132;SDS011;57495;49.922;7.966;2022-10-16T10:20:39;3.10;;;1.50;;
70132;SDS011;57495;49.922;7.966;2022-10-16T10:22:41;3.97;;;1.25;;
70132;SDS011;57495;49.922;7.966;2022-10-16T10:24:54;2.80;;;1.20;;
70132;SDS011;57495;49.922;7.966;2022-10-16T10:27:00;3.15;;;1.20;;
70132;SDS011;57495;49.922;7.966;2022-10-16T10:29:11;3.63;;;1.20;;
70132;SDS011;57495;49.922;7.966;2022-10-16T10:31:20;2.65;;;1.10;;
70132;SDS011;57495;49.922;7.966;2022-10-16T10:33:29;4.60;;;1.35;;
70132;SDS011;57495;49.922;7.966;2022-10-16T10:35:40;4.00;;;1.80;;
70132;SDS011;57495;49.922;7.966;2022-10-16T10:37:51;4.93;;;1.60;;
70132;SDS011;57495;49.922;7.966;2022-10-16T10:40:07;5.25;;;1.42;;
70132;SDS011;57495;49.922;7.966;2022-10-16T10:42:20;3.97;;;1.27;;
70132;SDS011;57495;49.922;7.966;2022-10-16T10:47:01;3.63;;;1.30;;
70132;SDS011;57495;49.922;7.966;2022-10-16T10:49:11;4.43;;;1.08;;
70132;SDS011;57495;49.922;7.966;2022-10-16T10:51:26;2.80;;;1.10;;
70132;SDS011;57495;49.922;7.966;2022-10-16T10:53:35;3.40;;;0.80;;
70132;SDS011;57495;49.922;7.966;2022-10-16T10:55:46;4.32;;;1.05;;
70132;SDS011;57495;49.922;7.966;2022-10-16T10:58:04;4.33;;;0.90;;
70132;SDS011;57495;49.922;7.966;2022-10-16T11:00:21;3.53;;;1.10;;
70132;SDS011;57495;49.922;7.966;2022-10-16T11:02:31;4.13;;;1.15;;
70132;SDS011;57495;49.922;7.966;2022-10-16T11:04:49;3.60;;;1.15;;
70132;SDS011;57495;49.922;7.966;2022-10-16T11:07:04;3.17;;;1.05;;
70132;SDS011;57495;49.922;7.966;2022-10-16T11:09:08;5.97;;;1.80;;
70132;SDS011;57495;49.922;7.966;2022-10-16T11:11:14;4.38;;;1.70;;
70132;SDS011;57495;49.922;7.966;2022-10-16T11:13:28;2.60;;;0.95;;
70132;SDS011;57495;49.922;7.966;2022-10-16T11:15:34;2.72;;;1.02;;
70132;SDS011;57495;49.922;7.966;2022-10-16T11:17:38;2.60;;;1.02;;
70132;SDS011;57495;49.922;7.966;2022-10-16T11:19:44;5.07;;;1.03;;
70132;SDS011;57495;49.922;7.966;2022-10-16T11:21:49;3.97;;;1.20;;
70132;SDS011;57495;49.922;7.966;2022-10-16T11:24:01;5.13;;;1.15;;
70132;SDS011;57495;49.922;7.966;2022-10-16T11:26:11;3.47;;;1.23;;
70132;SDS011;57495;49.922;7.966;2022-10-16T11:28:18;3.90;;;1.10;;
70132;SDS011;57495;49.922;7.966;2022-10-16T11:30:26;3.90;;;1.10;;
70132;SDS011;57495;49.922;7.966;2022-10-16T11:32:30;3.83;;;1.10;;
70132;SDS011;57495;49.922;7.966;2022-10-16T11:34:38;3.08;;;1.08;;
70132;SDS011;57495;49.922;7.966;2022-10-16T11:36:49;3.00;;;0.90;;
70132;SDS011;57495;49.922;7.966;2022-10-16T11:38:55;3.17;;;1.02;;
70132;SDS011;57495;49.922;7.966;2022-10-16T11:41:02;3.70;;;1.13;;
70132;SDS011;57495;49.922;7.966;2022-10-16T11:43:12;3.00;;;1.00;;
70132;SDS011;57495;49.922;7.966;2022-10-16T11:45:22;3.00;;;0.70;;
70132;SDS011;57495;49.922;7.966;2022-10-16T11:47:31;3.90;;;1.15;;
70132;SDS011;57495;49.922;7.966;2022-10-16T11:49:36;3.80;;;1.10;;
70132;SDS011;57495;49.922;7.966;2022-10-16T11:51:41;6.90;;;1.47;;
70132;SDS011;57495;49.922;7.966;2022-10-16T11:53:48;2.90;;;0.77;;
70132;SDS011;57495;49.922;7.966;2022-10-16T11:55:55;4.05;;;1.00;;
70132;SDS011;57495;49.922;7.966;2022-10-16T11:57:57;3.75;;;0.70;;
70132;SDS011;57495;49.922;7.966;2022-10-16T12:00:04;3.33;;;1.00;;
70132;SDS011;57495;49.922;7.966;2022-10-16T12:02:25;2.50;;;0.80;;
70132;SDS011;57495;49.922;7.966;2022-10-16T12:04:36;4.35;;;1.00;;
70132;SDS011;57495;49.922;7.966;2022-10-16T12:06:46;2.83;;;0.90;;
70132;SDS011;57495;49.922;7.966;2022-10-16T12:08:52;3.85;;;0.82;;
70132;SDS011;57495;49.922;7.966;2022-10-16T12:11:06;4.75;;;0.90;;
70132;SDS011;57495;49.922;7.966;2022-10-16T12:15:31;2.50;;;0.75;;
70132;SDS011;57495;49.922;7.966;2022-10-16T12:17:35;3.13;;;0.90;;
70132;SDS011;57495;49.922;7.966;2022-10-16T12:19:38;3.47;;;1.20;;
70132;SDS011;57495;49.922;7.966;2022-10-16T12:21:40;5.28;;;1.10;;
70132;SDS011;57495;49.922;7.966;2022-10-16T12:23:46;3.67;;;1.00;;
70132;SDS011;57495;49.922;7.966;2022-10-16T12:25:53;3.58;;;1.05;;
70132;SDS011;57495;49.922;7.966;2022-10-16T12:27:56;5.40;;;1.52;;
70132;SDS011;57495;49.922;7.966;2022-10-16T12:30:03;6.47;;;1.20;;
70132;SDS011;57495;49.922;7.966;2022-10-16T12:32:19;5.25;;;1.40;;
70132;SDS011;57495;49.922;7.966;2022-10-16T12:34:29;4.50;;;1.37;;